sensor_id;sensor_type;location;lat;lon;timestamp;temperature;humidity
39017;DHT22;24784;45.582;5.276;2023-03-14T00:01:48;10.80;99.90
39017;DHT22;24784;45.582;5.276;2023-03-14T00:04:14;10.70;99.90
39017;DHT22;24784;45.582;5.276;2023-03-14T00:06:40;10.80;99.90
39017;DHT22;24784;45.582;5.276;2023-03-14T00:09:06;10.80;99.90
39017;DHT22;24784;45.582;5.276;2023-03-14T00:11:34;10.80;99.90
39017;DHT22;24784;45.582;5.276;2023-03-14T00:14:01;10.80;99.90
39017;DHT22;24784;45.582;5.276;2023-03-14T00:16:28;10.80;99.90
39017;DHT22;24784;45.582;5.276;2023-03-14T00:18:54;10.90;99.90
39017;DHT22;24784;45.582;5.276;2023-03-14T00:21:20;10.80;99.90
39017;DHT22;24784;45.582;5.276;2023-03-14T00:23:45;10.70;99.90
39017;DHT22;24784;45.582;5.276;2023-03-14T00:26:16;10.60;99.90
39017;DHT22;24784;45.582;5.276;2023-03-14T00:28:43;10.70;99.90
39017;DHT22;24784;45.582;5.276;2023-03-14T00:31:11;10.60;99.90
39017;DHT22;24784;45.582;5.276;2023-03-14T00:33:37;10.80;99.90
39017;DHT22;24784;45.582;5.276;2023-03-14T00:36:09;10.80;99.90
39017;DHT22;24784;45.582;5.276;2023-03-14T00:38:36;10.70;99.90
39017;DHT22;24784;45.582;5.276;2023-03-14T00:41:11;10.40;99.90
39017;DHT22;24784;45.582;5.276;2023-03-14T00:43:37;10.50;99.90
39017;DHT22;24784;45.582;5.276;2023-03-14T00:46:03;10.60;99.90
39017;DHT22;24784;45.582;5.276;2023-03-14T00:48:29;10.60;99.90
39017;DHT22;24784;45.582;5.276;2023-03-14T00:50:55;10.60;99.90
39017;DHT22;24784;45.582;5.276;2023-03-14T00:53:21;10.60;99.90
39017;DHT22;24784;45.582;5.276;2023-03-14T00:55:47;10.60;99.90
39017;DHT22;24784;45.582;5.276;2023-03-14T00:58:15;10.50;99.90
39017;DHT22;24784;45.582;5.276;2023-03-14T01:00:42;10.50;99.90
39017;DHT22;24784;45.582;5.276;2023-03-14T01:03:09;10.40;99.90
39017;DHT22;24784;45.582;5.276;2023-03-14T01:05:35;10.30;99.90
39017;DHT22;24784;45.582;5.276;2023-03-14T01:08:01;10.40;99.90
39017;DHT22;24784;45.582;5.276;2023-03-14T01:10:27;10.40;99.90
39017;DHT22;24784;45.582;5.276;2023-03-14T01:12:53;10.50;99.90
39017;DHT22;24784;45.582;5.276;2023-03-14T01:15:20;10.50;99.90
39017;DHT22;24784;45.582;5.276;2023-03-14T01:17:46;10.40;99.90
39017;DHT22;24784;45.582;5.276;2023-03-14T01:20:13;10.40;99.90
39017;DHT22;24784;45.582;5.276;2023-03-14T01:22:41;10.40;99.90
39017;DHT22;24784;45.582;5.276;2023-03-14T01:25:09;10.40;99.90
39017;DHT22;24784;45.582;5.276;2023-03-14T01:27:35;10.40;99.90
39017;DHT22;24784;45.582;5.276;2023-03-14T01:30:01;10.30;99.90
39017;DHT22;24784;45.582;5.276;2023-03-14T01:32:27;10.40;99.90
39017;DHT22;24784;45.582;5.276;2023-03-14T01:34:53;10.50;99.90
39017;DHT22;24784;45.582;5.276;2023-03-14T01:37:19;10.60;99.90
39017;DHT22;24784;45.582;5.276;2023-03-14T01:39:47;10.50;99.90
39017;DHT22;24784;45.582;5.276;2023-03-14T01:42:13;10.40;99.90
39017;DHT22;24784;45.582;5.276;2023-03-14T01:44:54;10.40;99.90
39017;DHT22;24784;45.582;5.276;2023-03-14T01:47:21;10.30;99.90
39017;DHT22;24784;45.582;5.276;2023-03-14T01:49:59;10.20;99.90
39017;DHT22;24784;45.582;5.276;2023-03-14T01:52:46;10.20;99.90
39017;DHT22;24784;45.582;5.276;2023-03-14T01:55:17;10.10;99.90
39017;DHT22;24784;45.582;5.276;2023-03-14T01:57:50;10.20;99.90
39017;DHT22;24784;45.582;5.276;2023-03-14T02:00:20;10.20;99.90
39017;DHT22;24784;45.582;5.276;2023-03-14T02:02:48;10.20;99.90
39017;DHT22;24784;45.582;5.276;2023-03-14T02:05:18;10.20;99.90
39017;DHT22;24784;45.582;5.276;2023-03-14T02:07:53;10.20;99.90
39017;DHT22;24784;45.582;5.276;2023-03-14T02:10:22;10.20;99.90
39017;DHT22;24784;45.582;5.276;2023-03-14T02:12:49;10.20;99.90
39017;DHT22;24784;45.582;5.276;2023-03-14T02:15:16;10.30;99.90
39017;DHT22;24784;45.582;5.276;2023-03-14T02:17:43;10.30;99.90
39017;DHT22;24784;45.582;5.276;2023-03-14T02:22:37;10.30;99.90
39017;DHT22;24784;45.582;5.276;2023-03-14T02:27:48;10.20;99.90
39017;DHT22;24784;45.582;5.276;2023-03-14T02:30:19;10.20;99.90
39017;DHT22;24784;45.582;5.276;2023-03-14T02:32:48;10.20;99.90
39017;DHT22;24784;45.582;5.276;2023-03-14T02:35:19;10.20;99.90
39017;DHT22;24784;45.582;5.276;2023-03-14T02:37:53;10.20;99.90
39017;DHT22;24784;45.582;5.276;2023-03-14T02:40:20;10.20;99.90
39017;DHT22;24784;45.582;5.276;2023-03-14T02:42:46;10.20;99.90
39017;DHT22;24784;45.582;5.276;2023-03-14T02:47:42;10.20;99.90
39017;DHT22;24784;45.582;5.276;2023-03-14T02:50:12;10.30;99.90
39017;DHT22;24784;45.582;5.276;2023-03-14T02:52:38;10.30;99.90
39017;DHT22;24784;45.582;5.276;2023-03-14T02:55:04;10.20;99.90
39017;DHT22;24784;45.582;5.276;2023-03-14T02:57:30;10.10;99.90
39017;DHT22;24784;45.582;5.276;2023-03-14T03:00:00;10.10;99.90
39017;DHT22;24784;45.582;5.276;2023-03-14T03:02:27;10.10;99.90
39017;DHT22;24784;45.582;5.276;2023-03-14T03:04:52;10.10;99.90
39017;DHT22;24784;45.582;5.276;2023-03-14T03:07:18;10.20;99.90
39017;DHT22;24784;45.582;5.276;2023-03-14T03:09:44;10.20;99.90
39017;DHT22;24784;45.582;5.276;2023-03-14T03:12:10;10.10;99.90
39017;DHT22;24784;45.582;5.276;2023-03-14T03:14:36;9.90;99.90
39017;DHT22;24784;45.582;5.276;2023-03-14T03:17:04;9.90;99.90
39017;DHT22;24784;45.582;5.276;2023-03-14T03:19:30;10.00;99.90
39017;DHT22;24784;45.582;5.276;2023-03-14T03:21:56;9.90;99.90
39017;DHT22;24784;45.582;5.276;2023-03-14T03:24:23;9.90;99.90
39017;DHT22;24784;45.582;5.276;2023-03-14T03:26:49;9.90;99.90
39017;DHT22;24784;45.582;5.276;2023-03-14T03:29:15;9.80;99.90
39017;DHT22;24784;45.582;5.276;2023-03-14T03:31:41;9.80;99.90
39017;DHT22;24784;45.582;5.276;2023-03-14T03:34:07;9.90;99.90
39017;DHT22;24784;45.582;5.276;2023-03-14T03:36:35;10.00;99.90
39017;DHT22;24784;45.582;5.276;2023-03-14T03:39:01;9.90;99.90
39017;DHT22;24784;45.582;5.276;2023-03-14T03:41:27;9.80;99.90
39017;DHT22;24784;45.582;5.276;2023-03-14T03:43:52;9.80;99.90
39017;DHT22;24784;45.582;5.276;2023-03-14T03:46:19;9.80;99.90
39017;DHT22;24784;45.582;5.276;2023-03-14T03:48:45;9.90;99.90
39017;DHT22;24784;45.582;5.276;2023-03-14T03:51:13;9.90;99.90
39017;DHT22;24784;45.582;5.276;2023-03-14T03:53:39;10.00;99.90
39017;DHT22;24784;45.582;5.276;2023-03-14T03:56:06;10.00;99.90
39017;DHT22;24784;45.582;5.276;2023-03-14T03:58:31;10.00;99.90
39017;DHT22;24784;45.582;5.276;2023-03-14T04:00:57;10.00;99.90
39017;DHT22;24784;45.582;5.276;2023-03-14T04:03:23;10.00;99.90
39017;DHT22;24784;45.582;5.276;2023-03-14T04:08:25;10.10;99.90
39017;DHT22;24784;45.582;5.276;2023-03-14T04:10:57;10.10;99.90
39017;DHT22;24784;45.582;5.276;2023-03-14T04:13:23;10.20;99.90
39017;DHT22;24784;45.582;5.276;2023-03-14T04:15:50;10.10;99.90
39017;DHT22;24784;45.582;5.276;2023-03-14T04:18:16;10.10;99.90
39017;DHT22;24784;45.582;5.276;2023-03-14T04:20:42;10.10;99.90
39017;DHT22;24784;45.582;5.276;2023-03-14T04:23:07;10.10;99.90
39017;DHT22;24784;45.582;5.276;2023-03-14T04:25:33;10.20;99.90
39017;DHT22;24784;45.582;5.276;2023-03-14T04:27:59;10.20;99.90
39017;DHT22;24784;45.582;5.276;2023-03-14T04:30:25;10.20;99.90
39017;DHT22;24784;45.582;5.276;2023-03-14T04:32:50;10.20;99.90
39017;DHT22;24784;45.582;5.276;2023-03-14T04:35:16;10.10;99.90
39017;DHT22;24784;45.582;5.276;2023-03-14T04:37:42;10.10;99.90
39017;DHT22;24784;45.582;5.276;2023-03-14T04:40:10;10.10;99.90
39017;DHT22;24784;45.582;5.276;2023-03-14T04:42:36;10.20;99.90
39017;DHT22;24784;45.582;5.276;2023-03-14T04:45:02;10.10;99.90
39017;DHT22;24784;45.582;5.276;2023-03-14T04:47:28;10.20;99.90
39017;DHT22;24784;45.582;5.276;2023-03-14T04:49:54;10.20;99.90
39017;DHT22;24784;45.582;5.276;2023-03-14T04:52:20;10.20;99.90
39017;DHT22;24784;45.582;5.276;2023-03-14T04:54:46;10.10;99.90
39017;DHT22;24784;45.582;5.276;2023-03-14T04:57:12;10.20;99.90
39017;DHT22;24784;45.582;5.276;2023-03-14T04:59:37;10.20;99.90
39017;DHT22;24784;45.582;5.276;2023-03-14T05:02:03;10.10;99.90
39017;DHT22;24784;45.582;5.276;2023-03-14T05:04:29;10.10;99.90
39017;DHT22;24784;45.582;5.276;2023-03-14T05:06:58;10.00;99.90
39017;DHT22;24784;45.582;5.276;2023-03-14T05:09:24;10.10;99.90
39017;DHT22;24784;45.582;5.276;2023-03-14T05:11:50;10.00;99.90
39017;DHT22;24784;45.582;5.276;2023-03-14T05:14:15;10.00;99.90
39017;DHT22;24784;45.582;5.276;2023-03-14T05:16:41;9.90;99.90
39017;DHT22;24784;45.582;5.276;2023-03-14T05:19:07;9.90;99.90
39017;DHT22;24784;45.582;5.276;2023-03-14T05:21:33;9.90;99.90
39017;DHT22;24784;45.582;5.276;2023-03-14T05:23:59;9.90;99.90
39017;DHT22;24784;45.582;5.276;2023-03-14T05:26:25;9.90;99.90
39017;DHT22;24784;45.582;5.276;2023-03-14T05:28:50;9.90;99.90
39017;DHT22;24784;45.582;5.276;2023-03-14T05:31:16;9.80;99.90
39017;DHT22;24784;45.582;5.276;2023-03-14T05:33:42;9.80;99.90
39017;DHT22;24784;45.582;5.276;2023-03-14T05:36:08;9.80;99.90
39017;DHT22;24784;45.582;5.276;2023-03-14T05:38:34;9.80;99.90
39017;DHT22;24784;45.582;5.276;2023-03-14T05:41:00;9.80;99.90
39017;DHT22;24784;45.582;5.276;2023-03-14T05:43:26;9.70;99.90
39017;DHT22;24784;45.582;5.276;2023-03-14T05:45:51;9.70;99.90
39017;DHT22;24784;45.582;5.276;2023-03-14T05:48:17;9.60;99.90
39017;DHT22;24784;45.582;5.276;2023-03-14T05:50:44;9.50;99.90
39017;DHT22;24784;45.582;5.276;2023-03-14T05:53:10;9.60;99.90
39017;DHT22;24784;45.582;5.276;2023-03-14T05:55:35;9.50;99.90
39017;DHT22;24784;45.582;5.276;2023-03-14T05:58:01;9.50;99.90
39017;DHT22;24784;45.582;5.276;2023-03-14T06:00:27;9.50;99.90
39017;DHT22;24784;45.582;5.276;2023-03-14T06:02:53;9.50;99.90
39017;DHT22;24784;45.582;5.276;2023-03-14T06:05:19;9.50;99.90
39017;DHT22;24784;45.582;5.276;2023-03-14T06:07:44;9.60;99.90
39017;DHT22;24784;45.582;5.276;2023-03-14T06:10:10;9.50;99.90
39017;DHT22;24784;45.582;5.276;2023-03-14T06:12:36;9.60;99.90
39017;DHT22;24784;45.582;5.276;2023-03-14T06:15:02;9.60;99.90
39017;DHT22;24784;45.582;5.276;2023-03-14T06:17:28;9.60;99.90
39017;DHT22;24784;45.582;5.276;2023-03-14T06:19:54;9.60;99.90
39017;DHT22;24784;45.582;5.276;2023-03-14T06:22:19;9.60;99.90
39017;DHT22;24784;45.582;5.276;2023-03-14T06:24:45;9.70;99.90
39017;DHT22;24784;45.582;5.276;2023-03-14T06:27:11;9.70;99.90
39017;DHT22;24784;45.582;5.276;2023-03-14T06:29:37;9.70;99.90
39017;DHT22;24784;45.582;5.276;2023-03-14T06:32:03;9.80;99.90
39017;DHT22;24784;45.582;5.276;2023-03-14T06:34:30;9.80;99.90
39017;DHT22;24784;45.582;5.276;2023-03-14T06:36:55;9.80;99.90
39017;DHT22;24784;45.582;5.276;2023-03-14T06:39:21;9.80;99.90
39017;DHT22;24784;45.582;5.276;2023-03-14T06:41:47;9.80;99.90
39017;DHT22;24784;45.582;5.276;2023-03-14T06:44:12;9.80;99.90
39017;DHT22;24784;45.582;5.276;2023-03-14T06:46:38;9.70;99.90
39017;DHT22;24784;45.582;5.276;2023-03-14T06:49:04;9.70;99.90
39017;DHT22;24784;45.582;5.276;2023-03-14T06:51:30;9.80;99.90
39017;DHT22;24784;45.582;5.276;2023-03-14T06:53:55;9.70;99.90
39017;DHT22;24784;45.582;5.276;2023-03-14T06:56:21;9.70;99.90
39017;DHT22;24784;45.582;5.276;2023-03-14T06:58:47;9.60;99.90
39017;DHT22;24784;45.582;5.276;2023-03-14T07:01:25;9.70;99.90
39017;DHT22;24784;45.582;5.276;2023-03-14T07:03:51;9.60;99.90
39017;DHT22;24784;45.582;5.276;2023-03-14T07:06:17;9.50;99.90
39017;DHT22;24784;45.582;5.276;2023-03-14T07:08:43;9.50;99.90
39017;DHT22;24784;45.582;5.276;2023-03-14T07:11:09;9.50;99.90
39017;DHT22;24784;45.582;5.276;2023-03-14T07:13:37;9.50;99.90
39017;DHT22;24784;45.582;5.276;2023-03-14T07:16:03;9.40;99.90
39017;DHT22;24784;45.582;5.276;2023-03-14T07:18:29;9.40;99.90
39017;DHT22;24784;45.582;5.276;2023-03-14T07:20:55;9.40;99.90
39017;DHT22;24784;45.582;5.276;2023-03-14T07:23:21;9.40;99.90
39017;DHT22;24784;45.582;5.276;2023-03-14T07:25:47;9.40;99.90
39017;DHT22;24784;45.582;5.276;2023-03-14T07:28:12;9.40;99.90
39017;DHT22;24784;45.582;5.276;2023-03-14T07:30:38;9.40;99.90
39017;DHT22;24784;45.582;5.276;2023-03-14T07:33:04;9.40;99.90
39017;DHT22;24784;45.582;5.276;2023-03-14T07:35:30;9.30;99.90
39017;DHT22;24784;45.582;5.276;2023-03-14T07:37:55;9.30;99.90
39017;DHT22;24784;45.582;5.276;2023-03-14T07:40:21;9.30;99.90
39017;DHT22;24784;45.582;5.276;2023-03-14T07:42:47;9.20;99.90
39017;DHT22;24784;45.582;5.276;2023-03-14T07:45:13;9.20;99.90
39017;DHT22;24784;45.582;5.276;2023-03-14T07:47:39;9.20;99.90
39017;DHT22;24784;45.582;5.276;2023-03-14T07:50:08;9.30;99.90
39017;DHT22;24784;45.582;5.276;2023-03-14T07:52:34;9.20;99.90
39017;DHT22;24784;45.582;5.276;2023-03-14T07:55:00;9.20;99.90
39017;DHT22;24784;45.582;5.276;2023-03-14T07:57:25;9.10;99.90
39017;DHT22;24784;45.582;5.276;2023-03-14T07:59:51;9.10;99.90
39017;DHT22;24784;45.582;5.276;2023-03-14T08:02:17;9.10;99.90
39017;DHT22;24784;45.582;5.276;2023-03-14T08:04:45;9.20;99.90
39017;DHT22;24784;45.582;5.276;2023-03-14T08:07:11;9.20;99.90
39017;DHT22;24784;45.582;5.276;2023-03-14T08:09:37;9.10;99.90
39017;DHT22;24784;45.582;5.276;2023-03-14T08:12:03;9.20;99.90
39017;DHT22;24784;45.582;5.276;2023-03-14T08:14:29;9.20;99.90
39017;DHT22;24784;45.582;5.276;2023-03-14T08:16:56;9.30;99.90
39017;DHT22;24784;45.582;5.276;2023-03-14T08:19:22;9.30;99.90
39017;DHT22;24784;45.582;5.276;2023-03-14T08:21:48;9.20;99.90
39017;DHT22;24784;45.582;5.276;2023-03-14T08:24:14;9.20;99.90
39017;DHT22;24784;45.582;5.276;2023-03-14T08:26:39;9.20;99.90
39017;DHT22;24784;45.582;5.276;2023-03-14T08:29:05;9.30;99.90
39017;DHT22;24784;45.582;5.276;2023-03-14T08:31:32;9.30;99.90
39017;DHT22;24784;45.582;5.276;2023-03-14T08:33:59;9.40;99.90
39017;DHT22;24784;45.582;5.276;2023-03-14T08:36:25;9.40;99.90
39017;DHT22;24784;45.582;5.276;2023-03-14T08:38:50;9.30;99.90
39017;DHT22;24784;45.582;5.276;2023-03-14T08:41:16;9.30;99.90
39017;DHT22;24784;45.582;5.276;2023-03-14T08:43:42;9.40;99.90
39017;DHT22;24784;45.582;5.276;2023-03-14T08:46:08;9.40;99.90
39017;DHT22;24784;45.582;5.276;2023-03-14T08:48:34;9.40;99.90
39017;DHT22;24784;45.582;5.276;2023-03-14T08:51:10;9.50;99.90
39017;DHT22;24784;45.582;5.276;2023-03-14T08:53:38;9.50;99.90
39017;DHT22;24784;45.582;5.276;2023-03-14T08:56:04;9.50;99.90
39017;DHT22;24784;45.582;5.276;2023-03-14T08:58:32;9.60;99.90
39017;DHT22;24784;45.582;5.276;2023-03-14T09:00:57;9.60;99.90
39017;DHT22;24784;45.582;5.276;2023-03-14T09:03:24;9.50;99.90
39017;DHT22;24784;45.582;5.276;2023-03-14T09:05:51;9.50;99.90
39017;DHT22;24784;45.582;5.276;2023-03-14T09:08:17;9.50;99.90
39017;DHT22;24784;45.582;5.276;2023-03-14T09:10:43;9.60;99.90
39017;DHT22;24784;45.582;5.276;2023-03-14T09:13:09;9.60;99.90
39017;DHT22;24784;45.582;5.276;2023-03-14T09:15:35;9.60;99.90
39017;DHT22;24784;45.582;5.276;2023-03-14T09:18:01;9.60;99.90
39017;DHT22;24784;45.582;5.276;2023-03-14T09:20:27;9.60;99.90
39017;DHT22;24784;45.582;5.276;2023-03-14T09:22:53;9.70;99.90
39017;DHT22;24784;45.582;5.276;2023-03-14T09:25:19;9.70;99.90
39017;DHT22;24784;45.582;5.276;2023-03-14T09:27:44;9.70;99.90
39017;DHT22;24784;45.582;5.276;2023-03-14T09:30:10;9.70;99.90
39017;DHT22;24784;45.582;5.276;2023-03-14T09:32:36;9.70;99.90
39017;DHT22;24784;45.582;5.276;2023-03-14T09:35:02;9.70;99.90
39017;DHT22;24784;45.582;5.276;2023-03-14T09:37:28;9.70;99.90
39017;DHT22;24784;45.582;5.276;2023-03-14T09:39:54;9.70;99.90
39017;DHT22;24784;45.582;5.276;2023-03-14T09:42:25;9.80;99.90
39017;DHT22;24784;45.582;5.276;2023-03-14T09:45:03;9.80;99.90
39017;DHT22;24784;45.582;5.276;2023-03-14T09:47:32;9.80;99.90
39017;DHT22;24784;45.582;5.276;2023-03-14T09:50:00;9.80;99.90
39017;DHT22;24784;45.582;5.276;2023-03-14T09:52:33;9.90;99.90
39017;DHT22;24784;45.582;5.276;2023-03-14T09:55:04;9.90;99.90
39017;DHT22;24784;45.582;5.276;2023-03-14T09:57:33;9.80;99.90
39017;DHT22;24784;45.582;5.276;2023-03-14T10:02:41;9.90;99.90
39017;DHT22;24784;45.582;5.276;2023-03-14T10:05:19;9.90;99.90
39017;DHT22;24784;45.582;5.276;2023-03-14T10:07:45;9.90;99.90
39017;DHT22;24784;45.582;5.276;2023-03-14T10:10:20;9.90;99.90
39017;DHT22;24784;45.582;5.276;2023-03-14T10:12:54;9.90;99.90
39017;DHT22;24784;45.582;5.276;2023-03-14T10:15:25;9.80;99.90
39017;DHT22;24784;45.582;5.276;2023-03-14T10:17:51;9.70;99.90
39017;DHT22;24784;45.582;5.276;2023-03-14T10:23:00;9.40;99.90
39017;DHT22;24784;45.582;5.276;2023-03-14T10:25:30;9.20;99.90
39017;DHT22;24784;45.582;5.276;2023-03-14T10:27:56;9.20;99.90
39017;DHT22;24784;45.582;5.276;2023-03-14T10:30:43;9.10;99.90
39017;DHT22;24784;45.582;5.276;2023-03-14T10:33:21;9.10;99.90
39017;DHT22;24784;45.582;5.276;2023-03-14T10:36:35;9.20;99.90
39017;DHT22;24784;45.582;5.276;2023-03-14T10:38:41;9.20;99.90
39017;DHT22;24784;45.582;5.276;2023-03-14T10:41:25;9.20;99.90
39017;DHT22;24784;45.582;5.276;2023-03-14T10:43:54;9.30;99.90
39017;DHT22;24784;45.582;5.276;2023-03-14T10:46:23;9.30;99.90
39017;DHT22;24784;45.582;5.276;2023-03-14T10:48:50;9.30;99.90
39017;DHT22;24784;45.582;5.276;2023-03-14T10:53:48;9.30;99.90
39017;DHT22;24784;45.582;5.276;2023-03-14T10:56:21;9.30;99.90
39017;DHT22;24784;45.582;5.276;2023-03-14T10:58:56;9.40;99.90
39017;DHT22;24784;45.582;5.276;2023-03-14T11:07:29;9.80;99.90
39017;DHT22;24784;45.582;5.276;2023-03-14T11:10:18;9.70;99.90
39017;DHT22;24784;45.582;5.276;2023-03-14T11:15:41;9.70;99.90
39017;DHT22;24784;45.582;5.276;2023-03-14T11:18:36;9.80;99.90
39017;DHT22;24784;45.582;5.276;2023-03-14T11:23:56;9.90;99.90
39017;DHT22;24784;45.582;5.276;2023-03-14T11:29:22;10.10;99.90
39017;DHT22;24784;45.582;5.276;2023-03-14T11:31:50;10.10;99.90
39017;DHT22;24784;45.582;5.276;2023-03-14T11:34:52;10.10;99.90
39017;DHT22;24784;45.582;5.276;2023-03-14T11:37:43;10.00;99.90
39017;DHT22;24784;45.582;5.276;2023-03-14T11:40:20;10.10;99.90
39017;DHT22;24784;45.582;5.276;2023-03-14T11:42:55;10.10;99.90
39017;DHT22;24784;45.582;5.276;2023-03-14T11:45:31;10.20;99.90
39017;DHT22;24784;45.582;5.276;2023-03-14T11:48:32;10.50;99.90
39017;DHT22;24784;45.582;5.276;2023-03-14T11:51:02;10.40;99.90
39017;DHT22;24784;45.582;5.276;2023-03-14T11:53:41;10.70;99.90
39017;DHT22;24784;45.582;5.276;2023-03-14T11:56:18;10.80;99.90
39017;DHT22;24784;45.582;5.276;2023-03-14T11:58:58;10.90;99.90
39017;DHT22;24784;45.582;5.276;2023-03-14T12:01:33;10.90;99.90
39017;DHT22;24784;45.582;5.276;2023-03-14T12:04:06;10.80;99.90
39017;DHT22;24784;45.582;5.276;2023-03-14T12:06:37;10.90;99.90
39017;DHT22;24784;45.582;5.276;2023-03-14T12:09:06;11.10;99.90
39017;DHT22;24784;45.582;5.276;2023-03-14T12:12:06;11.40;99.90
39017;DHT22;24784;45.582;5.276;2023-03-14T12:14:37;11.80;99.90
39017;DHT22;24784;45.582;5.276;2023-03-14T12:19:45;12.00;99.90
39017;DHT22;24784;45.582;5.276;2023-03-14T12:22:23;12.00;99.90
39017;DHT22;24784;45.582;5.276;2023-03-14T12:24:54;11.70;99.90
39017;DHT22;24784;45.582;5.276;2023-03-14T12:30:41;11.70;99.90
39017;DHT22;24784;45.582;5.276;2023-03-14T12:35:47;11.70;99.90
39017;DHT22;24784;45.582;5.276;2023-03-14T12:38:15;11.80;99.90
39017;DHT22;24784;45.582;5.276;2023-03-14T12:43:30;11.50;99.90
39017;DHT22;24784;45.582;5.276;2023-03-14T12:51:20;11.60;99.90
39017;DHT22;24784;45.582;5.276;2023-03-14T12:54:15;11.80;99.90
39017;DHT22;24784;45.582;5.276;2023-03-14T12:59:38;11.30;99.90
39017;DHT22;24784;45.582;5.276;2023-03-14T13:02:25;11.60;99.90
39017;DHT22;24784;45.582;5.276;2023-03-14T13:05:13;11.50;99.90
39017;DHT22;24784;45.582;5.276;2023-03-14T13:21:14;11.30;99.90
39017;DHT22;24784;45.582;5.276;2023-03-14T13:26:19;11.20;99.90
39017;DHT22;24784;45.582;5.276;2023-03-14T13:28:45;11.10;99.90
39017;DHT22;24784;45.582;5.276;2023-03-14T13:31:21;11.00;99.90
39017;DHT22;24784;45.582;5.276;2023-03-14T13:34:05;10.90;99.90
39017;DHT22;24784;45.582;5.276;2023-03-14T13:36:35;10.80;99.90
39017;DHT22;24784;45.582;5.276;2023-03-14T13:39:01;10.90;99.90
39017;DHT22;24784;45.582;5.276;2023-03-14T13:41:28;11.20;99.90
39017;DHT22;24784;45.582;5.276;2023-03-14T13:44:23;11.40;99.90
39017;DHT22;24784;45.582;5.276;2023-03-14T13:46:49;11.50;99.90
39017;DHT22;24784;45.582;5.276;2023-03-14T13:49:22;11.70;99.90
39017;DHT22;24784;45.582;5.276;2023-03-14T13:51:49;11.90;99.90
39017;DHT22;24784;45.582;5.276;2023-03-14T13:54:17;11.80;99.90
39017;DHT22;24784;45.582;5.276;2023-03-14T13:56:44;11.70;99.90
39017;DHT22;24784;45.582;5.276;2023-03-14T13:59:28;11.60;99.90
39017;DHT22;24784;45.582;5.276;2023-03-14T14:01:55;10.70;99.90
39017;DHT22;24784;45.582;5.276;2023-03-14T14:04:23;10.20;99.90
39017;DHT22;24784;45.582;5.276;2023-03-14T14:06:59;9.70;99.90
39017;DHT22;24784;45.582;5.276;2023-03-14T14:09:38;9.60;99.90
39017;DHT22;24784;45.582;5.276;2023-03-14T14:12:16;9.50;99.90
39017;DHT22;24784;45.582;5.276;2023-03-14T14:17:39;9.80;99.90
39017;DHT22;24784;45.582;5.276;2023-03-14T14:20:12;9.90;99.90
39017;DHT22;24784;45.582;5.276;2023-03-14T14:22:40;9.80;99.90
39017;DHT22;24784;45.582;5.276;2023-03-14T14:25:06;9.90;99.90
39017;DHT22;24784;45.582;5.276;2023-03-14T14:27:42;10.10;99.90
39017;DHT22;24784;45.582;5.276;2023-03-14T14:32:43;10.30;99.90
39017;DHT22;24784;45.582;5.276;2023-03-14T14:35:23;10.50;99.90
39017;DHT22;24784;45.582;5.276;2023-03-14T14:37:49;10.50;99.90
39017;DHT22;24784;45.582;5.276;2023-03-14T14:40:26;10.60;99.90
39017;DHT22;24784;45.582;5.276;2023-03-14T14:42:53;10.60;99.90
39017;DHT22;24784;45.582;5.276;2023-03-14T14:45:23;10.80;99.90
39017;DHT22;24784;45.582;5.276;2023-03-14T14:47:52;10.80;99.90
39017;DHT22;24784;45.582;5.276;2023-03-14T14:50:34;10.80;99.90
39017;DHT22;24784;45.582;5.276;2023-03-14T14:53:21;11.00;99.90
39017;DHT22;24784;45.582;5.276;2023-03-14T14:55:51;11.00;99.90
39017;DHT22;24784;45.582;5.276;2023-03-14T14:58:28;11.00;99.90
39017;DHT22;24784;45.582;5.276;2023-03-14T15:01:15;11.00;99.90
39017;DHT22;24784;45.582;5.276;2023-03-14T15:03:43;10.90;99.90
39017;DHT22;24784;45.582;5.276;2023-03-14T15:06:14;10.90;99.90
39017;DHT22;24784;45.582;5.276;2023-03-14T15:08:42;10.80;99.90
39017;DHT22;24784;45.582;5.276;2023-03-14T15:11:19;10.80;99.90
39017;DHT22;24784;45.582;5.276;2023-03-14T15:13:46;10.80;99.90
39017;DHT22;24784;45.582;5.276;2023-03-14T15:16:13;10.60;99.90
39017;DHT22;24784;45.582;5.276;2023-03-14T15:18:40;10.70;99.90
39017;DHT22;24784;45.582;5.276;2023-03-14T15:21:09;10.70;99.90
39017;DHT22;24784;45.582;5.276;2023-03-14T15:23:35;10.80;99.90
39017;DHT22;24784;45.582;5.276;2023-03-14T15:26:01;10.90;99.90
39017;DHT22;24784;45.582;5.276;2023-03-14T15:28:29;10.90;99.90
39017;DHT22;24784;45.582;5.276;2023-03-14T15:30:58;10.90;99.90
39017;DHT22;24784;45.582;5.276;2023-03-14T15:33:25;10.90;99.90
39017;DHT22;24784;45.582;5.276;2023-03-14T15:35:52;11.00;99.90
39017;DHT22;24784;45.582;5.276;2023-03-14T15:38:20;11.00;99.90
39017;DHT22;24784;45.582;5.276;2023-03-14T15:40:49;10.90;99.90
39017;DHT22;24784;45.582;5.276;2023-03-14T15:43:16;10.70;99.90
39017;DHT22;24784;45.582;5.276;2023-03-14T15:45:41;10.70;99.90
39017;DHT22;24784;45.582;5.276;2023-03-14T15:48:14;10.70;99.90
39017;DHT22;24784;45.582;5.276;2023-03-14T15:50:41;10.60;99.90
39017;DHT22;24784;45.582;5.276;2023-03-14T15:53:07;10.60;99.90
39017;DHT22;24784;45.582;5.276;2023-03-14T15:55:33;10.50;99.90
39017;DHT22;24784;45.582;5.276;2023-03-14T15:57:58;10.50;99.90
39017;DHT22;24784;45.582;5.276;2023-03-14T16:00:26;10.50;99.90
39017;DHT22;24784;45.582;5.276;2023-03-14T16:02:52;10.60;99.90
39017;DHT22;24784;45.582;5.276;2023-03-14T16:05:17;10.60;99.90
39017;DHT22;24784;45.582;5.276;2023-03-14T16:07:45;10.60;99.90
39017;DHT22;24784;45.582;5.276;2023-03-14T16:10:12;10.60;99.90
39017;DHT22;24784;45.582;5.276;2023-03-14T16:12:38;10.60;99.90
39017;DHT22;24784;45.582;5.276;2023-03-14T16:15:04;10.60;99.90
39017;DHT22;24784;45.582;5.276;2023-03-14T16:17:30;10.50;99.90
39017;DHT22;24784;45.582;5.276;2023-03-14T16:19:56;10.40;99.90
39017;DHT22;24784;45.582;5.276;2023-03-14T16:22:22;10.30;99.90
39017;DHT22;24784;45.582;5.276;2023-03-14T16:24:47;10.30;99.90
39017;DHT22;24784;45.582;5.276;2023-03-14T16:27:13;10.10;99.90
39017;DHT22;24784;45.582;5.276;2023-03-14T16:29:39;10.10;99.90
39017;DHT22;24784;45.582;5.276;2023-03-14T16:34:33;10.00;99.90
39017;DHT22;24784;45.582;5.276;2023-03-14T16:36:58;10.00;99.90
39017;DHT22;24784;45.582;5.276;2023-03-14T16:39:24;10.00;99.90
39017;DHT22;24784;45.582;5.276;2023-03-14T16:41:53;10.10;99.90
39017;DHT22;24784;45.582;5.276;2023-03-14T16:44:19;10.10;99.90
39017;DHT22;24784;45.582;5.276;2023-03-14T16:46:44;10.10;99.90
39017;DHT22;24784;45.582;5.276;2023-03-14T16:49:28;10.10;99.90
39017;DHT22;24784;45.582;5.276;2023-03-14T16:51:54;10.10;99.90
39017;DHT22;24784;45.582;5.276;2023-03-14T16:54:21;10.00;99.90
39017;DHT22;24784;45.582;5.276;2023-03-14T16:56:46;9.90;99.90
39017;DHT22;24784;45.582;5.276;2023-03-14T16:59:14;9.90;99.90
39017;DHT22;24784;45.582;5.276;2023-03-14T17:01:40;9.90;99.90
39017;DHT22;24784;45.582;5.276;2023-03-14T17:04:07;9.90;99.90